| Pilot: | GLD1760 Luciano A. | Aircraft: | Piper | Distance: | 116NM |
| From: | SSPG | To: | SSTB | Duration: | 1.43 |
| Validation: | Valid | Tipo: | Charter | Tail Number: | PT-GLD |
| ZFW: | 1530 | Block Fuel/Init FOB | 82flight_details.php/55 | Flight Fuel | 82 |
| Passengers: | 0 | Cargo: | 10 | Alternate: | SBCT |
| Departure Time: | 1911 | Cruise Speed: | 120 | Flight Level: | FL650 |
| Flight Type: | VFR | Aircraft Type: | P28A | Weight Unit: | Kg |
| Date: | 27/04/2026 | Comments: | GOLD ACARS | Network: | VATSIM |
| Crash: | No | Validator Comments: | Rating | 127.281 |
| ROUTE | DCT 2550S04902W 2602S04930W DCT |
| REMARKS | PER/A OPR/GOLD VIRTUAL AIRLINES PER/A RMK/FROM SSPG/PIC GLD1760/EM TREINAMENTO VFR/ RMK/VATCAREER |
| Crash | OK | Beacon Lights off with engine on | OK | Speed above 250KIAS below 10.000ft | OK |
| Landing Lights OFF below 10.000ft | Fault | Landing Lights ON above 10.000ft | OK | Stall | OK |
| Overspeed | OK | Pause | OK | Refuel | OK |
| Slew | OK | Taxi Lights OFF during taxi | OK | Land Lights OFF during take off | OK |
| Landing Lights OFF during landing | OK | Landed in not planned airfield | OK | Taxi speed above 25 kt | OK |
| Incorrect QNH during take off | OK | Incorrect QNH during landing | OK |
| Wind: | 270º/2 kt | Heading: | 200 |
| VS: | -47 ft/min | IAS: | 51 kt |
| Gforce: | 1.0704 G | Bank: | 1.74 |
| Pitch | 3.73 | Flaps | 100 |
| Nav Lights | ON | Landing Lights | ON |
| Beacon Lights | ON | Strobe Lights | ON |
| DATE | EVENT | IAS | ALTITUDE |
|---|---|---|---|
| 2026-04-27 19:11:14 | GOLD ACARS VERSION 3.3.6.9 | 0 | 0 |
| 2026-04-27 19:11:14 | BOARDING | 1 | 92 |
| 2026-04-27 19:13:49 | STB LIGHTS ON | 1 | 92 |
| 2026-04-27 19:14:38 | STARTING ENGINE 1 | 1 | 92 |
| 2026-04-27 19:16:44 | NAV LIGHTS ON | 1 | 40 |
| 2026-04-27 19:16:47 | NAV LIGHTS OFF | 1 | 40 |
| 2026-04-27 19:16:48 | NAV LIGHTS ON | 1 | 40 |
| 2026-04-27 19:18:17 | TAXI TO THE RWY | 3 | 40 |
| 2026-04-27 19:23:09 | CLIMBING | 70 | 60 |
| 2026-04-27 19:23:09 | LIGHTS OFF BELOW 10000 ft | 70 | 60 |
| 2026-04-27 19:25:56 | AP ENGAGED | 81 | 2573 |
| 2026-04-27 19:26:29 | LND LIGHTS ON | 76 | 3067 |
| 2026-04-27 19:31:35 | CRUISE | 77 | 6492 |
| 2026-04-27 20:04:50 | AP DISENGAGED | 101 | 6499 |
| 2026-04-27 20:04:52 | DESCEND | 103 | 6489 |
| 2026-04-27 20:04:57 | CLIMBING | 104 | 6430 |
| 2026-04-27 20:04:59 | AP ENGAGED | 101 | 6463 |
| 2026-04-27 20:05:14 | CRUISE | 94 | 6584 |
| 2026-04-27 20:05:44 | DESCEND | 101 | 6553 |
| 2026-04-27 20:25:26 | AP DISENGAGED | 75 | 3591 |
| 2026-04-27 20:29:13 | FLAP 33% | 85 | 3640 |
| 2026-04-27 20:29:43 | FLAP 66% | 77 | 3565 |
| 2026-04-27 20:30:44 | FLAP 100% | 86 | 3171 |
| 2026-04-27 20:31:20 | LANDED AIRPORT [SSTB] | 52 | 2562 |
| 2026-04-27 20:31:20 | LANDED - VS: -47 ft/min | 50 | 2561 |
| 2026-04-27 20:31:26 | FLAP 66% | 42 | 2560 |
| 2026-04-27 20:31:26 | FLAP 0% | 41 | 2560 |
| 2026-04-27 20:31:37 | TAXI TO THE GATE | 29 | 2565 |
| 2026-04-27 20:32:06 | AT THE GATE | 0 | 2567 |
| 2026-04-27 20:35:48 | LND LIGHTS OFF | 2 | 2552 |
| 2026-04-27 20:36:51 | STOPPING ENGINE 1 | 2 | 2550 |
| 2026-04-27 20:37:05 | STB LIGHTS OFF | 2 | 2550 |
| 2026-04-27 20:37:05 | FLIGHT FINISHED | 2 | 2550 |
| DATE | IAS | GS | ALTITUDE | FUEL USED | OAT | Flight Phase |
|---|---|---|---|---|---|---|
| 2026-04-27 19:13:14 | 1 | 0 | 92 | 0 | 14 | BOARDING |
| 2026-04-27 19:14:14 | 1 | 0 | 92 | 0 | 14 | BOARDING |
| 2026-04-27 19:15:14 | 1 | 0 | 92 | 0 | 14 | BOARDING |
| 2026-04-27 19:16:15 | 1 | 0 | 40 | 0 | 14 | BOARDING |
| 2026-04-27 19:17:15 | 1 | 0 | 40 | 0 | 14 | BOARDING |
| 2026-04-27 19:18:16 | 3 | 3 | 40 | 0 | 14 | BOARDING |
| 2026-04-27 19:19:16 | 0 | 0 | 41 | 0 | 15 | BOARDING |
| 2026-04-27 19:20:16 | 5 | 7 | 41 | 0 | 15 | TAXI TO THE RWY |
| 2026-04-27 19:21:16 | 20 | 17 | 40 | 0 | 15 | TAXI TO THE RWY |
| 2026-04-27 19:22:17 | 0 | 0 | 43 | 0 | 15 | TAXI TO THE RWY |
| 2026-04-27 19:23:17 | 75 | 77 | 156 | 0 | 14 | TAXI TO THE RWY |
| 2026-04-27 19:24:17 | 80 | 77 | 1109 | 1 | 12 | CLIMBING |
| 2026-04-27 19:25:18 | 84 | 82 | 1991 | 1 | 11 | CLIMBING |
| 2026-04-27 19:26:18 | 79 | 78 | 2902 | 2 | 9 | CLIMBING |
| 2026-04-27 19:27:19 | 77 | 77 | 3750 | 2 | 7 | CLIMBING |
| 2026-04-27 19:28:19 | 79 | 80 | 4459 | 3 | 6 | CLIMBING |
| 2026-04-27 19:29:20 | 79 | 81 | 5170 | 3 | 4 | CLIMBING |
| 2026-04-27 19:30:20 | 77 | 79 | 5830 | 4 | 3 | CLIMBING |
| 2026-04-27 19:31:20 | 77 | 80 | 6378 | 4 | 4 | CLIMBING |
| 2026-04-27 19:32:21 | 98 | 105 | 6514 | 5 | 8 | CLIMBING |
| 2026-04-27 19:33:21 | 103 | 111 | 6509 | 5 | 5 | CRUISE |
| 2026-04-27 19:34:21 | 104 | 111 | 6509 | 5 | 2 | CRUISE |
| 2026-04-27 19:35:22 | 102 | 109 | 6505 | 6 | 4 | CRUISE |
| 2026-04-27 19:36:22 | 105 | 111 | 6508 | 6 | 3 | CRUISE |
| 2026-04-27 19:37:23 | 102 | 108 | 6504 | 7 | 6 | CRUISE |
| 2026-04-27 19:38:23 | 103 | 110 | 6505 | 7 | 5 | CRUISE |
| 2026-04-27 19:39:24 | 103 | 110 | 6506 | 7 | 5 | CRUISE |
| 2026-04-27 19:40:24 | 103 | 110 | 6504 | 8 | 4 | CRUISE |
| 2026-04-27 19:41:24 | 104 | 110 | 6506 | 8 | 4 | CRUISE |
| 2026-04-27 19:42:24 | 102 | 109 | 6503 | 9 | 7 | CRUISE |
| 2026-04-27 19:43:25 | 102 | 109 | 6501 | 9 | 7 | CRUISE |
| 2026-04-27 19:44:25 | 101 | 108 | 6501 | 9 | 7 | CRUISE |
| 2026-04-27 19:45:25 | 101 | 108 | 6498 | 10 | 7 | CRUISE |
| 2026-04-27 19:46:25 | 101 | 108 | 6497 | 10 | 7 | CRUISE |
| 2026-04-27 19:47:25 | 101 | 109 | 6499 | 11 | 8 | CRUISE |
| 2026-04-27 19:48:26 | 101 | 107 | 6495 | 11 | 8 | CRUISE |
| 2026-04-27 19:49:26 | 101 | 108 | 6496 | 11 | 8 | CRUISE |
| 2026-04-27 19:50:26 | 102 | 109 | 6498 | 12 | 8 | CRUISE |
| 2026-04-27 19:51:27 | 101 | 108 | 6496 | 12 | 7 | CRUISE |
| 2026-04-27 19:52:27 | 101 | 108 | 6498 | 13 | 8 | CRUISE |
| 2026-04-27 19:53:27 | 101 | 108 | 6498 | 13 | 8 | CRUISE |
| 2026-04-27 19:54:27 | 101 | 108 | 6498 | 13 | 7 | CRUISE |
| 2026-04-27 19:55:27 | 101 | 109 | 6500 | 14 | 7 | CRUISE |
| 2026-04-27 19:56:28 | 102 | 109 | 6498 | 14 | 7 | CRUISE |
| 2026-04-27 19:57:28 | 101 | 108 | 6497 | 15 | 7 | CRUISE |
| 2026-04-27 19:58:28 | 101 | 108 | 6496 | 15 | 8 | CRUISE |
| 2026-04-27 19:59:28 | 102 | 109 | 6499 | 15 | 7 | CRUISE |
| 2026-04-27 20:00:29 | 101 | 107 | 6491 | 16 | 8 | CRUISE |
| 2026-04-27 20:01:29 | 102 | 108 | 6496 | 16 | 7 | CRUISE |
| 2026-04-27 20:02:29 | 101 | 107 | 6494 | 17 | 8 | CRUISE |
| 2026-04-27 20:03:30 | 101 | 107 | 6495 | 17 | 7 | CRUISE |
| 2026-04-27 20:04:30 | 102 | 109 | 6498 | 17 | 7 | CRUISE |
| 2026-04-27 20:05:30 | 99 | 106 | 6571 | 18 | 7 | CRUISE |
| 2026-04-27 20:06:30 | 102 | 109 | 6479 | 18 | 7 | CRUISE |
| 2026-04-27 20:07:31 | 102 | 108 | 6478 | 19 | 7 | DESCEND |
| 2026-04-27 20:08:31 | 101 | 108 | 6482 | 19 | 7 | DESCEND |
| 2026-04-27 20:09:32 | 101 | 108 | 6478 | 19 | 7 | DESCEND |
| 2026-04-27 20:10:32 | 102 | 108 | 6481 | 20 | 7 | DESCEND |
| 2026-04-27 20:11:32 | 102 | 109 | 6480 | 20 | 7 | DESCEND |
| 2026-04-27 20:12:33 | 102 | 108 | 6480 | 21 | 7 | DESCEND |
| 2026-04-27 20:13:33 | 101 | 107 | 6479 | 21 | 7 | DESCEND |
| 2026-04-27 20:14:34 | 103 | 109 | 6155 | 21 | 8 | DESCEND |
| 2026-04-27 20:15:34 | 94 | 99 | 5638 | 21 | 8 | DESCEND |
| 2026-04-27 20:16:34 | 89 | 92 | 5115 | 22 | 10 | DESCEND |
| 2026-04-27 20:17:35 | 91 | 93 | 4615 | 22 | 11 | DESCEND |
| 2026-04-27 20:18:35 | 98 | 99 | 4121 | 22 | 12 | DESCEND |
| 2026-04-27 20:19:36 | 97 | 98 | 3769 | 22 | 12 | DESCEND |
| 2026-04-27 20:20:36 | 94 | 95 | 3602 | 23 | 13 | DESCEND |
| 2026-04-27 20:21:36 | 111 | 114 | 3608 | 23 | 12 | DESCEND |
| 2026-04-27 20:22:37 | 112 | 114 | 3605 | 24 | 13 | DESCEND |
| 2026-04-27 20:23:37 | 85 | 86 | 3590 | 24 | 13 | DESCEND |
| 2026-04-27 20:24:38 | 85 | 85 | 3598 | 24 | 13 | DESCEND |
| 2026-04-27 20:25:38 | 76 | 77 | 3596 | 24 | 13 | DESCEND |
| 2026-04-27 20:26:38 | 78 | 81 | 3668 | 25 | 12 | DESCEND |
| 2026-04-27 20:27:39 | 82 | 83 | 3683 | 25 | 12 | DESCEND |
| 2026-04-27 20:28:40 | 84 | 91 | 3637 | 25 | 12 | DESCEND |
| 2026-04-27 20:29:41 | 78 | 86 | 3569 | 25 | 12 | DESCEND |
| 2026-04-27 20:30:42 | 87 | 90 | 3182 | 26 | 13 | DESCEND |
| 2026-04-27 20:31:42 | 17 | 16 | 2567 | 26 | 15 | DESCEND |
| 2026-04-27 20:32:43 | 10 | 10 | 2568 | 26 | 15 | TAXI TO THE GATE |
| 2026-04-27 20:33:46 | 18 | 20 | 2573 | 26 | 15 | AT THE GATE |
| 2026-04-27 20:34:46 | 18 | 20 | 2560 | 26 | 15 | AT THE GATE |
| 2026-04-27 20:35:47 | 2 | 0 | 2552 | 26 | 15 | AT THE GATE |
| 2026-04-27 20:36:47 | 2 | 0 | 2550 | 26 | 14 | AT THE GATE |